Time;durP1;ratioP1;P1;durP2;ratioP2;P2;SDS_P1;SDS_P2;PMS_P1;PMS_P2;Temp;Humidity;BMP_temperature;BMP_pressure;BME280_temperature;BME280_humidity;BME280_pressure;Samples;Min_cycle;Max_cycle;Signal;HPM_P1;HPM_P2
2022/03/01 00:02:12;;;;;;;62.03;19.00;;;;;;;-148.23;100.00;61223.13;4985857;28;20088;-67
2022/03/01 00:04:38;;;;;;;76.45;21.23;;;;;;;-148.23;100.00;61223.13;4986690;28;20030;-66
2022/03/01 00:07:03;;;;;;;60.60;17.20;;;;;;;-148.23;100.00;61223.13;4987084;28;20042;-66
2022/03/01 00:09:29;;;;;;;73.00;20.23;;;;;;;-148.23;100.00;61223.13;4983454;28;20057;-66
2022/03/01 00:11:54;;;;;;;64.13;18.52;;;;;;;-148.23;100.00;61223.13;4982550;28;20029;-66
2022/03/01 00:14:20;;;;;;;69.82;19.67;;;;;;;-148.23;100.00;61223.13;4986349;28;20072;-66
2022/03/01 00:16:45;;;;;;;64.05;17.80;;;;;;;-148.23;100.00;61223.13;4986468;28;20038;-66
2022/03/01 00:19:10;;;;;;;54.33;17.25;;;;;;;-148.23;100.00;61223.13;4990857;28;20412;-66
2022/03/01 00:21:35;;;;;;;59.33;19.45;;;;;;;-148.23;100.00;61223.13;4981299;28;20034;-66
2022/03/01 00:24:01;;;;;;;61.97;19.98;;;;;;;-148.23;100.00;61223.13;4983371;28;20149;-66
2022/03/01 00:26:26;;;;;;;59.35;18.95;;;;;;;-148.23;100.00;61223.13;4982673;28;20037;-66
2022/03/01 00:28:51;;;;;;;65.47;19.95;;;;;;;-148.23;100.00;61223.13;4987632;28;20034;-66
2022/03/01 00:31:17;;;;;;;61.75;18.20;;;;;;;-148.23;100.00;61223.13;4984376;28;20037;-66
2022/03/01 00:33:42;;;;;;;48.97;16.65;;;;;;;-148.23;100.00;61223.13;4986764;28;20042;-66
2022/03/01 00:36:08;;;;;;;65.95;20.45;;;;;;;-148.23;100.00;61223.13;4989685;28;20018;-66
2022/03/01 00:38:33;;;;;;;58.22;18.65;;;;;;;-148.23;100.00;61223.13;4986855;28;20034;-66
2022/03/01 00:40:59;;;;;;;60.20;18.13;;;;;;;-148.23;100.00;61223.13;4986449;28;20391;-66
2022/03/01 00:43:24;;;;;;;55.00;18.73;;;;;;;-148.23;100.00;61223.13;4987650;28;20037;-66
2022/03/01 00:45:51;;;;;;;61.20;19.15;;;;;;;-148.23;100.00;61223.13;4987882;28;20066;-66
2022/03/01 00:48:17;;;;;;;52.70;16.27;;;;;;;-148.23;100.00;61223.13;4986597;28;20069;-66
2022/03/01 00:50:42;;;;;;;55.72;17.15;;;;;;;-148.23;100.00;61223.13;4990737;28;20034;-66
2022/03/01 00:53:08;;;;;;;63.95;19.80;;;;;;;-148.23;100.00;61223.13;4986826;28;20503;-66
2022/03/01 00:55:33;;;;;;;54.83;18.10;;;;;;;-148.23;100.00;61223.13;4991766;28;20034;-66
2022/03/01 00:57:59;;;;;;;58.42;18.85;;;;;;;-148.23;100.00;61223.13;4985814;28;20023;-66
2022/03/01 01:00:24;;;;;;;62.53;18.17;;;;;;;-148.23;100.00;61223.13;5005339;28;20034;-66
2022/03/01 01:02:50;;;;;;;56.03;17.60;;;;;;;-148.23;100.00;61223.13;4988798;28;20049;-66
2022/03/01 01:05:15;;;;;;;57.38;17.33;;;;;;;-148.23;100.00;61223.13;4986310;28;20118;-66
2022/03/01 01:07:41;;;;;;;54.38;16.83;;;;;;;-148.23;100.00;61223.13;5002682;28;20048;-66
2022/03/01 01:10:07;;;;;;;60.13;17.90;;;;;;;-148.23;100.00;61223.13;4983018;28;20373;-67
2022/03/01 01:12:33;;;;;;;58.03;18.67;;;;;;;-148.23;100.00;61223.13;4981904;28;20400;-66
2022/03/01 01:14:59;;;;;;;46.90;17.13;;;;;;;-148.23;100.00;61223.13;4984655;28;20030;-66
2022/03/01 01:17:24;;;;;;;65.10;18.10;;;;;;;-148.23;100.00;61223.13;5002793;28;21636;-66
2022/03/01 01:19:50;;;;;;;62.13;20.10;;;;;;;-148.23;100.00;61223.13;4984108;28;20113;-66
2022/03/01 01:25:00;;;;;;;59.17;19.02;;;;;;;-148.23;100.00;61223.13;4989387;28;20041;-66
2022/03/01 01:27:25;;;;;;;61.53;17.20;;;;;;;-148.23;100.00;61223.13;4986720;28;20027;-66
2022/03/01 01:29:50;;;;;;;60.95;18.85;;;;;;;-148.23;100.00;61223.13;4984692;28;20053;-66
2022/03/01 01:32:16;;;;;;;60.80;17.83;;;;;;;-148.23;100.00;61223.13;4980464;28;20586;-66
2022/03/01 01:34:41;;;;;;;61.83;17.75;;;;;;;-148.23;100.00;61223.13;4987490;28;20121;-66
2022/03/01 01:37:06;;;;;;;55.95;16.10;;;;;;;-148.23;100.00;61223.13;4986768;28;20364;-66
2022/03/01 01:39:32;;;;;;;53.35;16.75;;;;;;;-148.23;100.00;61223.13;4969084;28;20022;-66
2022/03/01 01:41:57;;;;;;;55.28;17.25;;;;;;;-148.23;100.00;61223.13;4981974;28;20146;-66
2022/03/01 01:44:23;;;;;;;52.80;17.10;;;;;;;-148.23;100.00;61223.13;4980720;28;20036;-66
2022/03/01 01:46:48;;;;;;;49.03;16.67;;;;;;;-148.23;100.00;61223.13;4987945;28;20104;-66
2022/03/01 01:49:13;;;;;;;54.88;17.05;;;;;;;-148.23;100.00;61223.13;4984117;28;20026;-66
2022/03/01 01:51:39;;;;;;;50.92;16.13;;;;;;;-148.23;100.00;61223.13;4984193;28;20169;-66
2022/03/01 01:54:05;;;;;;;52.10;16.23;;;;;;;-148.23;100.00;61223.13;4986277;28;20158;-66
2022/03/01 01:56:31;;;;;;;57.60;17.27;;;;;;;-148.23;100.00;61223.13;5000903;28;20030;-66
2022/03/01 01:58:56;;;;;;;52.30;17.48;;;;;;;-148.23;100.00;61223.13;4985880;28;20535;-66
2022/03/01 02:01:22;;;;;;;55.47;17.05;;;;;;;-148.23;100.00;61223.13;4986500;28;20396;-66
2022/03/01 02:03:47;;;;;;;50.58;15.93;;;;;;;-148.23;100.00;61223.13;4981698;28;20057;-66
2022/03/01 02:06:12;;;;;;;55.72;16.80;;;;;;;-148.23;100.00;61223.13;4998382;28;20038;-66
2022/03/01 02:08:38;;;;;;;54.10;17.52;;;;;;;-148.23;100.00;61223.13;4999449;28;20550;-66
2022/03/01 02:11:03;;;;;;;53.75;18.60;;;;;;;-148.23;100.00;61223.13;4985089;28;20074;-66
2022/03/01 02:13:28;;;;;;;58.35;17.20;;;;;;;-148.23;100.00;61223.13;4983617;28;20464;-66
2022/03/01 02:15:55;;;;;;;63.97;18.40;;;;;;;-148.23;100.00;61223.13;4987060;28;20401;-66
2022/03/01 02:18:21;;;;;;;56.92;17.75;;;;;;;-148.23;100.00;61223.13;4986174;28;20031;-66
2022/03/01 02:20:46;;;;;;;60.22;20.65;;;;;;;-148.23;100.00;61223.13;4980396;28;20080;-66
2022/03/01 02:23:12;;;;;;;52.90;19.80;;;;;;;-148.23;100.00;61223.13;4979447;28;20435;-66
2022/03/01 02:25:37;;;;;;;63.40;21.10;;;;;;;-148.23;100.00;61223.13;4986032;28;20038;-66
2022/03/01 02:28:04;;;;;;;59.03;17.48;;;;;;;-148.23;100.00;61223.13;5001714;28;20026;-67
2022/03/01 02:30:29;;;;;;;54.22;17.42;;;;;;;-148.23;100.00;61223.13;4985299;28;20038;-66
2022/03/01 02:32:54;;;;;;;67.53;20.73;;;;;;;-148.23;100.00;61223.13;4984478;28;20030;-66
2022/03/01 02:35:20;;;;;;;64.07;21.40;;;;;;;-148.23;100.00;61223.13;5001724;28;20062;-66
2022/03/01 02:37:46;;;;;;;57.10;19.23;;;;;;;-148.23;100.00;61223.13;4983810;28;20069;-66
2022/03/01 02:40:12;;;;;;;59.80;20.15;;;;;;;-148.23;100.00;61223.13;4981720;28;20121;-66
2022/03/01 02:42:38;;;;;;;58.78;18.90;;;;;;;-148.23;100.00;61223.13;4980489;28;20066;-66
2022/03/01 02:45:05;;;;;;;58.85;17.90;;;;;;;-148.23;100.00;61223.13;4984167;28;20144;-66
2022/03/01 02:47:30;;;;;;;63.03;20.25;;;;;;;-148.23;100.00;61223.13;4982325;28;20026;-66
2022/03/01 02:49:56;;;;;;;50.53;17.55;;;;;;;-148.23;100.00;61223.13;4985085;28;20045;-66
2022/03/01 02:52:21;;;;;;;54.15;17.15;;;;;;;-148.23;100.00;61223.13;4980390;28;20055;-66
2022/03/01 02:54:46;;;;;;;53.97;17.35;;;;;;;-148.23;100.00;61223.13;4986445;28;20033;-66
2022/03/01 02:57:12;;;;;;;56.25;17.58;;;;;;;-148.23;100.00;61223.13;4981637;28;20038;-66
2022/03/01 02:59:37;;;;;;;63.50;20.55;;;;;;;-148.23;100.00;61223.13;4981140;28;20411;-66
2022/03/01 03:02:04;;;;;;;52.22;16.60;;;;;;;-148.23;100.00;61223.13;4982891;28;20088;-66
2022/03/01 03:04:30;;;;;;;62.08;18.10;;;;;;;-148.23;100.00;61223.13;4983899;28;20035;-66
2022/03/01 03:06:55;;;;;;;52.17;16.90;;;;;;;-148.23;100.00;61223.13;4982376;28;20038;-67
2022/03/01 03:09:21;;;;;;;52.90;16.48;;;;;;;-148.23;100.00;61223.13;4982104;28;20069;-66
2022/03/01 03:11:47;;;;;;;60.67;18.08;;;;;;;-148.23;100.00;61223.13;4979019;28;20306;-66
2022/03/01 03:14:12;;;;;;;68.80;18.70;;;;;;;-148.23;100.00;61223.13;4984758;28;20038;-66
2022/03/01 03:16:37;;;;;;;53.05;16.30;;;;;;;-148.23;100.00;61223.13;4989841;28;20079;-66
2022/03/01 03:19:03;;;;;;;49.35;19.00;;;;;;;-148.23;100.00;61223.13;4983285;28;20728;-66
2022/03/01 03:21:28;;;;;;;54.95;17.52;;;;;;;-148.23;100.00;61223.13;4985782;28;20679;-66
2022/03/01 03:23:53;;;;;;;53.88;17.55;;;;;;;-148.23;100.00;61223.13;4982154;28;20172;-66
2022/03/01 03:26:19;;;;;;;49.60;16.98;;;;;;;-148.23;100.00;61223.13;4985877;28;20076;-66
2022/03/01 03:28:44;;;;;;;50.33;16.63;;;;;;;-148.23;100.00;61223.13;4985498;28;20036;-66
2022/03/01 03:31:09;;;;;;;55.85;17.17;;;;;;;-148.23;100.00;61223.13;4985185;28;20550;-66
2022/03/01 03:33:35;;;;;;;52.10;17.58;;;;;;;-148.23;100.00;61223.13;4982546;28;20026;-66
2022/03/01 03:36:00;;;;;;;47.05;16.83;;;;;;;-148.23;100.00;61223.13;4984673;28;20074;-66
2022/03/01 03:38:26;;;;;;;61.40;19.10;;;;;;;-148.23;100.00;61223.13;4998185;28;20030;-66
2022/03/01 03:40:52;;;;;;;52.03;17.33;;;;;;;-148.23;100.00;61223.13;4980929;28;20026;-66
2022/03/01 03:43:18;;;;;;;58.00;18.25;;;;;;;-148.23;100.00;61223.13;4984827;28;20054;-66
2022/03/01 03:45:43;;;;;;;54.60;16.52;;;;;;;-148.23;100.00;61223.13;4982689;28;20081;-66
2022/03/01 03:48:08;;;;;;;52.15;17.15;;;;;;;-148.23;100.00;61223.13;4985319;28;20056;-66
2022/03/01 03:50:34;;;;;;;62.25;18.58;;;;;;;-148.23;100.00;61223.13;4980711;28;20381;-66
2022/03/01 03:52:59;;;;;;;53.15;17.80;;;;;;;-148.23;100.00;61223.13;4987177;28;20069;-66
2022/03/01 03:55:25;;;;;;;56.00;17.85;;;;;;;-148.23;100.00;61223.13;4982561;28;20026;-66
2022/03/01 03:57:50;;;;;;;51.97;16.55;;;;;;;-148.23;100.00;61223.13;4982139;28;20117;-66
2022/03/01 04:00:17;;;;;;;53.78;18.85;;;;;;;-148.23;100.00;61223.13;4966995;28;20037;-66
2022/03/01 04:02:46;;;;;;;55.90;18.45;;;;;;;-148.23;100.00;61223.13;4981589;28;20060;-66
2022/03/01 04:05:12;;;;;;;63.13;19.88;;;;;;;-148.23;100.00;61223.13;4997459;28;20042;-66
2022/03/01 04:07:39;;;;;;;65.65;19.52;;;;;;;-148.23;100.00;61223.13;4979968;28;20485;-66
2022/03/01 04:10:05;;;;;;;55.20;19.73;;;;;;;-148.23;100.00;61223.13;4965924;28;20099;-66
2022/03/01 04:12:31;;;;;;;61.42;19.58;;;;;;;-148.23;100.00;61223.13;4979811;28;20440;-66
2022/03/01 04:14:56;;;;;;;56.47;18.70;;;;;;;-148.23;100.00;61223.13;4984059;28;20473;-66
2022/03/01 04:17:22;;;;;;;66.82;18.98;;;;;;;-148.23;100.00;61223.13;4980837;28;20034;-66
2022/03/01 04:19:47;;;;;;;63.17;18.77;;;;;;;-148.23;100.00;61223.13;4981280;28;20042;-67
2022/03/01 04:22:12;;;;;;;64.22;19.92;;;;;;;-148.23;100.00;61223.13;4979965;28;20058;-66
2022/03/01 04:24:38;;;;;;;68.00;20.05;;;;;;;-148.23;100.00;61223.13;4983008;28;20165;-66
2022/03/01 04:27:04;;;;;;;56.85;19.00;;;;;;;-148.23;100.00;61223.13;4984035;28;20423;-66
2022/03/01 04:29:29;;;;;;;59.47;17.85;;;;;;;-148.23;100.00;61223.13;4986061;28;20116;-66
2022/03/01 04:31:54;;;;;;;60.25;20.50;;;;;;;-148.23;100.00;61223.13;4986554;28;20066;-66
2022/03/01 04:34:19;;;;;;;56.75;18.35;;;;;;;-148.23;100.00;61223.13;4984709;28;20691;-66
2022/03/01 04:36:45;;;;;;;59.38;18.88;;;;;;;-148.23;100.00;61223.13;4984305;28;20460;-67
2022/03/01 04:39:10;;;;;;;63.88;18.92;;;;;;;-148.23;100.00;61223.13;4982360;28;20129;-66
2022/03/01 04:41:35;;;;;;;68.80;20.25;;;;;;;-148.23;100.00;61223.13;4981411;28;20473;-66
2022/03/01 04:44:01;;;;;;;69.00;19.75;;;;;;;-148.23;100.00;61223.13;4983423;28;20095;-66
2022/03/01 04:46:26;;;;;;;55.88;18.63;;;;;;;-148.23;100.00;61223.13;4984592;28;20038;-66
2022/03/01 04:48:52;;;;;;;67.00;22.50;;;;;;;-148.23;100.00;61223.13;4985414;28;20049;-66
2022/03/01 04:51:21;;;;;;;52.92;17.70;;;;;;;-148.23;100.00;61223.13;4978543;28;20456;-66
2022/03/01 04:53:47;;;;;;;65.05;21.17;;;;;;;-148.23;100.00;61223.13;4985008;28;20077;-66
2022/03/01 04:56:13;;;;;;;73.00;20.45;;;;;;;-148.23;100.00;61223.13;4979893;28;20018;-66
2022/03/01 04:58:38;;;;;;;65.78;18.75;;;;;;;-148.23;100.00;61223.13;4985050;28;20477;-66
2022/03/01 05:01:04;;;;;;;75.32;21.85;;;;;;;-148.23;100.00;61223.13;4980519;28;20026;-66
2022/03/01 05:03:29;;;;;;;67.35;21.13;;;;;;;-148.23;100.00;61223.13;4982561;28;20046;-66
2022/03/01 05:05:54;;;;;;;69.05;21.25;;;;;;;-148.23;100.00;61223.13;4982294;28;20521;-66
2022/03/01 05:08:19;;;;;;;69.45;20.10;;;;;;;-148.23;100.00;61223.13;4983765;28;20038;-66
2022/03/01 05:10:45;;;;;;;62.67;18.92;;;;;;;-148.23;100.00;61223.13;4982059;28;20077;-66
2022/03/01 05:13:11;;;;;;;72.10;21.05;;;;;;;-148.23;100.00;61223.13;4980401;28;20488;-66
2022/03/01 05:15:36;;;;;;;68.95;23.17;;;;;;;-148.23;100.00;61223.13;4983675;28;20149;-66
2022/03/01 05:18:01;;;;;;;70.35;21.40;;;;;;;-148.23;100.00;61223.13;4981642;28;20030;-66
2022/03/01 05:20:27;;;;;;;70.97;22.05;;;;;;;-148.23;100.00;61223.13;4987424;28;20435;-66
2022/03/01 05:22:53;;;;;;;85.03;22.88;;;;;;;-148.23;100.00;61223.13;4984822;28;20354;-66
2022/03/01 05:25:21;;;;;;;66.53;21.55;;;;;;;-148.23;100.00;61223.13;4989114;28;20117;-67
2022/03/01 05:27:49;;;;;;;65.22;20.63;;;;;;;-148.23;100.00;61223.13;4985839;28;20121;-66
2022/03/01 05:30:15;;;;;;;76.18;22.48;;;;;;;-148.23;100.00;61223.13;4991668;28;20054;-66
2022/03/01 05:32:43;;;;;;;64.70;21.63;;;;;;;-148.23;100.00;61223.13;4986670;28;20030;-66
2022/03/01 05:35:13;;;;;;;65.45;21.10;;;;;;;-148.23;100.00;61223.13;4987551;28;20069;-66
2022/03/01 05:37:39;;;;;;;63.92;20.40;;;;;;;-148.23;100.00;61223.13;4987789;28;20496;-66
2022/03/01 05:40:06;;;;;;;68.70;21.38;;;;;;;-148.23;100.00;61223.13;4987982;28;20034;-66
2022/03/01 05:42:32;;;;;;;73.63;20.02;;;;;;;-148.23;100.00;61223.13;4990774;28;20036;-66
2022/03/01 05:44:59;;;;;;;69.55;20.65;;;;;;;-148.23;100.00;61223.13;4985305;28;20034;-66
2022/03/01 05:47:27;;;;;;;72.15;22.27;;;;;;;-148.23;100.00;61223.13;4985881;28;20155;-66
2022/03/01 05:49:54;;;;;;;72.10;22.58;;;;;;;-148.23;100.00;61223.13;4985539;28;20527;-66
2022/03/01 05:52:19;;;;;;;72.65;20.15;;;;;;;-148.23;100.00;61223.13;4985055;28;20066;-66
2022/03/01 05:54:44;;;;;;;80.25;22.98;;;;;;;-148.23;100.00;61223.13;4987747;28;20058;-66
2022/03/01 05:57:10;;;;;;;62.88;19.75;;;;;;;-148.23;100.00;61223.13;4987986;28;20050;-67
2022/03/01 05:59:35;;;;;;;80.75;21.90;;;;;;;-148.23;100.00;61223.13;5000163;28;20083;-67
2022/03/01 06:02:01;;;;;;;74.65;23.55;;;;;;;-148.23;100.00;61223.13;4998725;28;20034;-66
2022/03/01 06:04:26;;;;;;;68.70;22.38;;;;;;;-148.23;100.00;61223.13;4987800;28;20037;-66
2022/03/01 06:06:51;;;;;;;86.55;24.25;;;;;;;-148.23;100.00;61223.13;4987138;28;20061;-65
2022/03/01 06:09:17;;;;;;;71.72;22.85;;;;;;;-148.23;100.00;61223.13;4978627;28;20045;-66
2022/03/01 06:11:42;;;;;;;74.97;21.52;;;;;;;-148.23;100.00;61223.13;4982292;28;20121;-66
2022/03/01 06:14:07;;;;;;;74.20;23.13;;;;;;;-148.23;100.00;61223.13;4984637;28;20033;-66
2022/03/01 06:16:33;;;;;;;68.45;21.25;;;;;;;-148.23;100.00;61223.13;4982278;28;20040;-66
2022/03/01 06:18:58;;;;;;;70.95;21.63;;;;;;;-148.23;100.00;61223.13;4979966;28;20050;-66
2022/03/01 06:21:23;;;;;;;74.70;22.95;;;;;;;-148.23;100.00;61223.13;4984212;28;20065;-66
2022/03/01 06:23:49;;;;;;;69.85;20.90;;;;;;;-148.23;100.00;61223.13;4984798;28;20035;-66
2022/03/01 06:26:14;;;;;;;80.07;23.50;;;;;;;-148.23;100.00;61223.13;4985453;28;20488;-66
2022/03/01 06:28:40;;;;;;;72.28;21.83;;;;;;;-148.23;100.00;61223.13;4983696;28;20449;-66
2022/03/01 06:31:05;;;;;;;85.60;25.95;;;;;;;-148.23;100.00;61223.13;4982981;28;20076;-67
2022/03/01 06:33:30;;;;;;;71.70;22.15;;;;;;;-148.23;100.00;61223.13;4982045;28;20033;-67
2022/03/01 06:35:56;;;;;;;78.82;25.10;;;;;;;-148.23;100.00;61223.13;4985290;28;20511;-66
2022/03/01 06:38:21;;;;;;;69.70;20.50;;;;;;;-148.23;100.00;61223.13;4980208;28;20034;-66
2022/03/01 06:40:48;;;;;;;83.72;23.75;;;;;;;-148.23;100.00;61223.13;4987567;28;20103;-67
2022/03/01 06:43:13;;;;;;;82.95;23.88;;;;;;;-148.23;100.00;61223.13;4983250;28;20733;-66
2022/03/01 06:45:38;;;;;;;75.22;23.13;;;;;;;-148.23;100.00;61223.13;4983813;28;20465;-66
2022/03/01 06:48:04;;;;;;;81.72;24.98;;;;;;;-148.23;100.00;61223.13;4983042;28;20037;-66
2022/03/01 06:50:29;;;;;;;74.50;24.35;;;;;;;-148.23;100.00;61223.13;4981684;28;20440;-66
2022/03/01 06:52:54;;;;;;;69.85;22.98;;;;;;;-148.23;100.00;61223.13;4983473;28;20038;-66
2022/03/01 06:55:21;;;;;;;76.78;22.02;;;;;;;-148.23;100.00;61223.13;4979521;28;20141;-66
2022/03/01 06:57:47;;;;;;;78.30;22.80;;;;;;;-148.23;100.00;61223.13;4987249;28;20045;-66
2022/03/01 07:00:13;;;;;;;88.95;25.13;;;;;;;-148.23;100.00;61223.13;4983301;28;20033;-66
2022/03/01 07:02:38;;;;;;;78.28;24.80;;;;;;;-148.23;100.00;61223.13;4999275;28;20547;-66
2022/03/01 07:05:11;;;;;;;79.70;24.23;;;;;;;-148.23;100.00;61223.13;4984554;28;20026;-66
2022/03/01 07:07:37;;;;;;;75.28;22.10;;;;;;;-148.23;100.00;61223.13;4984128;28;20022;-66
2022/03/01 07:10:04;;;;;;;78.88;23.98;;;;;;;-148.23;100.00;61223.13;4982414;28;20030;-66
2022/03/01 07:12:29;;;;;;;83.22;24.02;;;;;;;-148.23;100.00;61223.13;4980697;28;20038;-66
2022/03/01 07:14:54;;;;;;;86.93;24.33;;;;;;;-148.23;100.00;61223.13;4983204;28;20370;-65
2022/03/01 07:17:20;;;;;;;74.00;23.52;;;;;;;-148.23;100.00;61223.13;4984233;28;20041;-66
2022/03/01 07:19:46;;;;;;;80.95;23.60;;;;;;;-148.23;100.00;61223.13;4980295;28;20033;-66
2022/03/01 07:22:11;;;;;;;83.38;24.05;;;;;;;-148.23;100.00;61223.13;4980303;28;20476;-66
2022/03/01 07:24:36;;;;;;;90.95;25.10;;;;;;;-148.23;100.00;61223.13;4983552;28;20037;-66
2022/03/01 07:27:02;;;;;;;84.53;26.23;;;;;;;-148.23;100.00;61223.13;4979224;28;20042;-66
2022/03/01 07:29:30;;;;;;;84.28;26.40;;;;;;;-148.23;100.00;61223.13;4980838;28;20038;-66
2022/03/01 07:31:56;;;;;;;79.88;24.50;;;;;;;-148.23;100.00;61223.13;4975166;28;20222;-66
2022/03/01 07:34:21;;;;;;;86.68;26.02;;;;;;;-148.23;100.00;61223.13;4980719;28;20062;-66
2022/03/01 07:36:46;;;;;;;81.72;26.10;;;;;;;-148.23;100.00;61223.13;4980447;28;20071;-66
2022/03/01 07:39:11;;;;;;;81.93;25.80;;;;;;;-148.23;100.00;61223.13;4984755;28;20420;-66
2022/03/01 07:41:37;;;;;;;90.72;24.00;;;;;;;-148.23;100.00;61223.13;4992944;28;20413;-66
2022/03/01 07:44:02;;;;;;;79.00;24.10;;;;;;;-148.23;100.00;61223.13;4979822;28;20042;-66
2022/03/01 07:46:28;;;;;;;66.53;24.15;;;;;;;-148.23;100.00;61223.13;4981584;28;20077;-66
2022/03/01 07:48:53;;;;;;;85.07;26.95;;;;;;;-148.23;100.00;61223.13;4978231;28;20034;-66
2022/03/01 07:51:18;;;;;;;75.28;23.88;;;;;;;-148.23;100.00;61223.13;4991632;28;20971;-66
2022/03/01 07:53:44;;;;;;;87.47;26.25;;;;;;;-148.23;100.00;61223.13;4980473;28;20609;-66
2022/03/01 07:56:09;;;;;;;78.95;23.20;;;;;;;-148.23;100.00;61223.13;4996416;28;20444;-66
2022/03/01 07:58:34;;;;;;;96.10;30.98;;;;;;;-148.23;100.00;61223.13;4981599;28;20492;-66
2022/03/01 08:01:00;;;;;;;77.97;24.63;;;;;;;-148.23;100.00;61223.13;4981874;28;20081;-66
2022/03/01 08:03:25;;;;;;;78.50;23.27;;;;;;;-148.23;100.00;61223.13;4970576;28;20035;-66
2022/03/01 08:05:51;;;;;;;74.57;24.80;;;;;;;-148.23;100.00;61223.13;4975608;28;20042;-66
2022/03/01 08:08:17;;;;;;;92.00;28.08;;;;;;;-148.23;100.00;61223.13;4967234;28;20065;-66
2022/03/01 08:10:42;;;;;;;98.40;28.70;;;;;;;-148.23;100.00;61223.13;4974800;28;20073;-66
2022/03/01 08:13:07;;;;;;;83.30;25.52;;;;;;;-148.23;100.00;61223.13;4974151;28;20084;-66
2022/03/01 08:15:33;;;;;;;83.43;25.38;;;;;;;-148.23;100.00;61223.13;4974605;28;20038;-66
2022/03/01 08:17:58;;;;;;;87.90;26.85;;;;;;;-148.23;100.00;61223.13;4974297;28;20069;-66
2022/03/01 08:20:25;;;;;;;84.88;23.42;;;;;;;-148.23;100.00;61223.13;4977939;28;20089;-66
2022/03/01 08:22:51;;;;;;;93.45;25.58;;;;;;;-148.23;100.00;61223.13;4973748;28;20424;-66
2022/03/01 08:25:17;;;;;;;83.70;26.58;;;;;;;-148.23;100.00;61223.13;4976672;28;20033;-66
2022/03/01 08:27:42;;;;;;;101.10;28.42;;;;;;;-148.23;100.00;61223.13;4977223;28;20551;-66
2022/03/01 08:30:08;;;;;;;90.05;27.38;;;;;;;-148.23;100.00;61223.13;4977153;28;21813;-66
2022/03/01 08:32:34;;;;;;;93.07;27.77;;;;;;;-148.23;100.00;61223.13;4975825;28;20054;-66
2022/03/01 08:34:59;;;;;;;83.80;26.60;;;;;;;-148.23;100.00;61223.13;4976021;28;20037;-66
2022/03/01 08:37:26;;;;;;;91.50;30.10;;;;;;;-148.23;100.00;61223.13;4976864;28;20041;-66
2022/03/01 08:39:51;;;;;;;111.88;29.98;;;;;;;-148.23;100.00;61223.13;4977341;28;20453;-66
2022/03/01 08:42:17;;;;;;;91.60;26.52;;;;;;;-148.23;100.00;61223.13;4974125;28;20069;-66
2022/03/01 08:44:43;;;;;;;99.90;31.08;;;;;;;-148.23;100.00;61223.13;4979523;28;20034;-66
2022/03/01 08:47:08;;;;;;;101.18;29.80;;;;;;;-148.23;100.00;61223.13;4978552;28;20476;-66
2022/03/01 08:49:34;;;;;;;97.88;31.65;;;;;;;-148.23;100.00;61223.13;4980487;28;20469;-66
2022/03/01 08:51:59;;;;;;;102.00;30.02;;;;;;;-148.23;100.00;61223.13;4975994;28;20042;-66
2022/03/01 08:54:24;;;;;;;102.20;30.48;;;;;;;-148.23;100.00;61223.13;4979179;28;20038;-66
2022/03/01 08:56:50;;;;;;;90.38;28.08;;;;;;;-148.23;100.00;61223.13;4981895;28;20030;-66
2022/03/01 08:59:16;;;;;;;91.03;27.83;;;;;;;-148.23;100.00;61223.13;4983297;28;20034;-66
2022/03/01 09:01:41;;;;;;;93.68;27.92;;;;;;;-148.23;100.00;61223.13;4982940;28;20062;-66
2022/03/01 09:04:07;;;;;;;101.40;28.20;;;;;;;-148.23;100.00;61223.13;4983636;28;20523;-66
2022/03/01 09:06:32;;;;;;;109.35;34.10;;;;;;;-148.23;100.00;61223.13;4984047;28;20727;-66
2022/03/01 09:08:57;;;;;;;96.75;30.45;;;;;;;-148.23;100.00;61223.13;4986312;28;20078;-66
2022/03/01 09:11:23;;;;;;;95.93;30.13;;;;;;;-148.23;100.00;61223.13;4979268;28;20065;-66
2022/03/01 09:13:48;;;;;;;85.82;26.30;;;;;;;-148.23;100.00;61223.13;4983520;28;20065;-66
2022/03/01 09:16:14;;;;;;;94.95;29.80;;;;;;;-148.23;100.00;61223.13;4980970;28;20076;-67
2022/03/01 09:18:39;;;;;;;95.65;29.77;;;;;;;-148.23;100.00;61223.13;4982378;28;20485;-66
2022/03/01 09:21:05;;;;;;;98.43;30.55;;;;;;;-148.23;100.00;61223.13;4983126;28;20329;-64
2022/03/01 09:23:31;;;;;;;91.63;29.30;;;;;;;-148.23;100.00;61223.13;4981905;28;20056;-66
2022/03/01 09:25:56;;;;;;;85.15;28.55;;;;;;;-148.23;100.00;61223.13;4982029;28;20480;-67
2022/03/01 09:28:22;;;;;;;94.22;26.20;;;;;;;-148.23;100.00;61223.13;4985370;28;20035;-66
2022/03/01 09:30:47;;;;;;;94.03;29.33;;;;;;;-148.23;100.00;61223.13;4984517;28;20081;-66
2022/03/01 09:33:13;;;;;;;85.50;26.98;;;;;;;-148.23;100.00;61223.13;4982223;28;20034;-66
2022/03/01 09:35:38;;;;;;;100.10;28.48;;;;;;;-148.23;100.00;61223.13;4986706;28;20303;-66
2022/03/01 09:38:04;;;;;;;98.80;31.85;;;;;;;-148.23;100.00;61223.13;4984533;28;20531;-66
2022/03/01 09:40:29;;;;;;;87.82;31.38;;;;;;;-148.23;100.00;61223.13;4981445;28;20088;-65
2022/03/01 09:42:54;;;;;;;94.40;30.15;;;;;;;-148.23;100.00;61223.13;4977167;28;20491;-66
2022/03/01 09:45:21;;;;;;;95.75;33.10;;;;;;;-148.23;100.00;61223.13;4984426;28;20057;-67
2022/03/01 09:47:47;;;;;;;94.78;36.75;;;;;;;-148.23;100.00;61223.13;4979570;28;20034;-66
2022/03/01 09:50:13;;;;;;;82.88;26.58;;;;;;;-148.23;100.00;61223.13;4977338;28;20502;-66
2022/03/01 09:52:39;;;;;;;78.80;26.05;;;;;;;-148.23;100.00;61223.13;4982908;28;20030;-66
2022/03/01 09:55:07;;;;;;;91.78;28.55;;;;;;;-148.23;100.00;61223.13;4985006;28;20461;-67
2022/03/01 09:57:32;;;;;;;97.07;36.67;;;;;;;-148.23;100.00;61223.13;4981290;28;20174;-67
2022/03/01 09:59:58;;;;;;;81.72;24.33;;;;;;;-148.23;100.00;61223.13;4985485;28;20030;-66
2022/03/01 10:02:37;;;;;;;83.85;29.98;;;;;;;-148.23;100.00;61223.13;4983410;28;20145;-67
2022/03/01 10:05:04;;;;;;;90.60;29.83;;;;;;;-148.23;100.00;61223.13;4981899;28;20117;-67
2022/03/01 10:07:30;;;;;;;82.70;28.40;;;;;;;-148.23;100.00;61223.13;4979171;28;20530;-66
2022/03/01 10:10:13;;;;;;;85.85;31.20;;;;;;;-148.23;100.00;61223.13;4982174;28;20034;-67
2022/03/01 10:12:39;;;;;;;83.15;28.80;;;;;;;-148.23;100.00;61223.13;4981252;28;20034;-66
2022/03/01 10:15:06;;;;;;;79.63;27.38;;;;;;;-148.23;100.00;61223.13;4995884;28;20029;-67
2022/03/01 10:17:36;;;;;;;78.53;28.77;;;;;;;-148.23;100.00;61223.13;4981379;28;20030;-67
2022/03/01 10:20:10;;;;;;;83.13;34.05;;;;;;;-148.23;100.00;61223.13;4982587;28;20042;-67
2022/03/01 10:22:49;;;;;;;80.00;31.45;;;;;;;-148.23;100.00;61223.13;4980936;28;20695;-67
2022/03/01 10:25:21;;;;;;;68.85;27.27;;;;;;;-148.23;100.00;61223.13;4985130;28;20038;-66
2022/03/01 10:27:47;;;;;;;85.28;32.50;;;;;;;-148.23;100.00;61223.13;4979466;28;20030;-67
2022/03/01 10:30:22;;;;;;;66.88;24.58;;;;;;;-148.23;100.00;61223.13;4982199;28;20045;-67
2022/03/01 10:32:47;;;;;;;61.42;22.88;;;;;;;-148.23;100.00;61223.13;4975895;28;20380;-67
2022/03/01 10:35:13;;;;;;;68.85;23.85;;;;;;;-148.23;100.00;61223.13;4985273;28;20031;-66
2022/03/01 10:37:39;;;;;;;71.97;27.90;;;;;;;-148.23;100.00;61223.13;4977854;28;20038;-67
2022/03/01 10:40:21;;;;;;;66.43;26.35;;;;;;;-148.23;100.00;61223.13;4978427;28;20026;-67
2022/03/01 10:43:07;;;;;;;64.47;24.30;;;;;;;-148.23;100.00;61223.13;4979502;28;20137;-68
2022/03/01 10:45:43;;;;;;;70.28;29.45;;;;;;;-148.23;100.00;61223.13;4979225;28;20172;-67
2022/03/01 10:48:11;;;;;;;65.25;26.42;;;;;;;-148.23;100.00;61223.13;4994260;28;20042;-67
2022/03/01 10:50:38;;;;;;;75.88;27.17;;;;;;;-148.23;100.00;61223.13;4978270;28;20034;-67
2022/03/01 10:53:03;;;;;;;64.82;26.08;;;;;;;-148.23;100.00;61223.13;4978790;28;20022;-67